sensor_id;sensor_type;location;lat;lon;timestamp;pressure;altitude;pressure_sealevel;temperature;humidity
46394;BME280;32099;53.588;10.176;2022-10-16T00:00:33;100570.28;;;15.50;78.96
46394;BME280;32099;53.588;10.176;2022-10-16T00:02:59;100565.84;;;15.49;78.82
46394;BME280;32099;53.588;10.176;2022-10-16T00:05:25;100568.00;;;15.47;78.83
46394;BME280;32099;53.588;10.176;2022-10-16T00:07:50;100572.63;;;15.46;78.70
46394;BME280;32099;53.588;10.176;2022-10-16T00:10:15;100570.31;;;15.43;79.12
46394;BME280;32099;53.588;10.176;2022-10-16T00:12:41;100577.72;;;15.42;79.03
46394;BME280;32099;53.588;10.176;2022-10-16T00:15:06;100589.56;;;15.43;79.14
46394;BME280;32099;53.588;10.176;2022-10-16T00:17:32;100587.03;;;15.41;79.24
46394;BME280;32099;53.588;10.176;2022-10-16T00:19:57;100585.59;;;15.39;79.35
46394;BME280;32099;53.588;10.176;2022-10-16T00:22:22;100591.94;;;15.33;79.20
46394;BME280;32099;53.588;10.176;2022-10-16T00:24:48;100582.66;;;15.27;79.12
46394;BME280;32099;53.588;10.176;2022-10-16T00:27:13;100583.28;;;15.29;79.18
46394;BME280;32099;53.588;10.176;2022-10-16T00:29:38;100590.91;;;15.27;79.09
46394;BME280;32099;53.588;10.176;2022-10-16T00:32:04;100583.13;;;15.24;79.08
46394;BME280;32099;53.588;10.176;2022-10-16T00:34:29;100587.13;;;15.21;79.32
46394;BME280;32099;53.588;10.176;2022-10-16T00:36:54;100590.31;;;15.18;79.38
46394;BME280;32099;53.588;10.176;2022-10-16T00:39:20;100590.75;;;15.15;79.68
46394;BME280;32099;53.588;10.176;2022-10-16T00:41:45;100595.84;;;15.11;79.40
46394;BME280;32099;53.588;10.176;2022-10-16T00:47:17;100601.13;;;15.06;79.44
46394;BME280;32099;53.588;10.176;2022-10-16T00:49:46;100598.19;;;15.01;79.69
46394;BME280;32099;53.588;10.176;2022-10-16T00:52:13;100603.88;;;15.00;79.48
46394;BME280;32099;53.588;10.176;2022-10-16T00:54:39;100600.50;;;14.98;79.45
46394;BME280;32099;53.588;10.176;2022-10-16T00:57:05;100602.63;;;14.95;80.12
46394;BME280;32099;53.588;10.176;2022-10-16T00:59:33;100606.66;;;14.93;79.55
46394;BME280;32099;53.588;10.176;2022-10-16T01:02:02;100609.81;;;14.90;79.49
46394;BME280;32099;53.588;10.176;2022-10-16T01:04:31;100597.59;;;14.86;79.62
46394;BME280;32099;53.588;10.176;2022-10-16T01:07:03;100608.78;;;14.84;79.89
46394;BME280;32099;53.588;10.176;2022-10-16T01:12:38;100617.88;;;14.78;80.37
46394;BME280;32099;53.588;10.176;2022-10-16T01:15:54;100611.56;;;14.77;80.03
46394;BME280;32099;53.588;10.176;2022-10-16T01:18:19;100612.63;;;14.76;80.09
46394;BME280;32099;53.588;10.176;2022-10-16T01:21:03;100618.31;;;14.75;80.18
46394;BME280;32099;53.588;10.176;2022-10-16T01:29:13;100628.84;;;14.64;80.53
46394;BME280;32099;53.588;10.176;2022-10-16T01:31:48;100630.75;;;14.64;80.20
46394;BME280;32099;53.588;10.176;2022-10-16T01:34:20;100637.31;;;14.63;80.37
46394;BME280;32099;53.588;10.176;2022-10-16T01:36:52;100630.75;;;14.64;80.16
46394;BME280;32099;53.588;10.176;2022-10-16T01:39:22;100629.25;;;14.61;80.26
46394;BME280;32099;53.588;10.176;2022-10-16T01:41:54;100631.41;;;14.59;80.03
46394;BME280;32099;53.588;10.176;2022-10-16T01:44:25;100636.25;;;14.57;79.72
46394;BME280;32099;53.588;10.176;2022-10-16T01:46:56;100628.44;;;14.54;79.86
46394;BME280;32099;53.588;10.176;2022-10-16T01:49:22;100632.47;;;14.52;79.74
46394;BME280;32099;53.588;10.176;2022-10-16T01:51:52;100623.59;;;14.49;79.49
46394;BME280;32099;53.588;10.176;2022-10-16T01:54:22;100621.69;;;14.50;79.23
46394;BME280;32099;53.588;10.176;2022-10-16T01:56:52;100625.69;;;14.47;79.10
46394;BME280;32099;53.588;10.176;2022-10-16T01:59:20;100624.88;;;14.47;79.08
46394;BME280;32099;53.588;10.176;2022-10-16T02:01:52;100632.47;;;14.45;79.28
46394;BME280;32099;53.588;10.176;2022-10-16T02:04:24;100628.44;;;14.41;78.91
46394;BME280;32099;53.588;10.176;2022-10-16T02:06:55;100629.31;;;14.41;79.05
46394;BME280;32099;53.588;10.176;2022-10-16T02:09:20;100634.16;;;14.39;78.94
46394;BME280;32099;53.588;10.176;2022-10-16T02:11:46;100638.78;;;14.39;78.86
46394;BME280;32099;53.588;10.176;2022-10-16T02:14:14;100633.72;;;14.35;79.24
46394;BME280;32099;53.588;10.176;2022-10-16T02:16:40;100633.09;;;14.33;78.86
46394;BME280;32099;53.588;10.176;2022-10-16T02:19:10;100632.88;;;14.28;79.24
46394;BME280;32099;53.588;10.176;2022-10-16T02:21:42;100632.44;;;14.25;79.24
46394;BME280;32099;53.588;10.176;2022-10-16T02:24:16;100628.03;;;14.24;79.06
46394;BME280;32099;53.588;10.176;2022-10-16T02:26:57;100629.06;;;14.23;79.26
46394;BME280;32099;53.588;10.176;2022-10-16T02:29:28;100626.31;;;14.23;78.85
46394;BME280;32099;53.588;10.176;2022-10-16T02:31:55;100630.97;;;14.22;78.85
46394;BME280;32099;53.588;10.176;2022-10-16T02:34:26;100628.47;;;14.21;78.35
46394;BME280;32099;53.588;10.176;2022-10-16T02:36:55;100633.09;;;14.20;78.77
46394;BME280;32099;53.588;10.176;2022-10-16T02:39:22;100635.41;;;14.16;78.94
46394;BME280;32099;53.588;10.176;2022-10-16T02:41:48;100639.84;;;14.11;78.36
46394;BME280;32099;53.588;10.176;2022-10-16T02:44:13;100641.28;;;14.07;78.49
46394;BME280;32099;53.588;10.176;2022-10-16T02:46:38;100636.84;;;14.06;78.42
46394;BME280;32099;53.588;10.176;2022-10-16T02:49:04;100632.66;;;14.03;78.55
46394;BME280;32099;53.588;10.176;2022-10-16T02:51:29;100624.00;;;13.99;78.24
46394;BME280;32099;53.588;10.176;2022-10-16T02:53:54;100630.94;;;13.95;78.63
46394;BME280;32099;53.588;10.176;2022-10-16T02:56:20;100642.53;;;13.91;78.30
46394;BME280;32099;53.588;10.176;2022-10-16T02:58:45;100636.22;;;13.90;78.55
46394;BME280;32099;53.588;10.176;2022-10-16T03:01:10;100641.06;;;13.88;78.51
46394;BME280;32099;53.588;10.176;2022-10-16T03:03:37;100638.31;;;13.88;78.42
46394;BME280;32099;53.588;10.176;2022-10-16T03:06:03;100646.13;;;13.84;78.47
46394;BME280;32099;53.588;10.176;2022-10-16T03:08:28;100640.81;;;13.83;78.23
46394;BME280;32099;53.588;10.176;2022-10-16T03:10:54;100639.13;;;13.82;77.94
46394;BME280;32099;53.588;10.176;2022-10-16T03:13:19;100641.44;;;13.78;78.10
46394;BME280;32099;53.588;10.176;2022-10-16T03:15:45;100632.59;;;13.76;78.06
46394;BME280;32099;53.588;10.176;2022-10-16T03:18:10;100629.84;;;13.76;78.07
46394;BME280;32099;53.588;10.176;2022-10-16T03:20:36;100634.91;;;13.72;77.91
46394;BME280;32099;53.588;10.176;2022-10-16T03:23:01;100628.34;;;13.67;78.21
46394;BME280;32099;53.588;10.176;2022-10-16T03:25:27;100632.75;;;13.61;78.30
46394;BME280;32099;53.588;10.176;2022-10-16T03:27:52;100629.38;;;13.59;78.32
46394;BME280;32099;53.588;10.176;2022-10-16T03:30:18;100635.06;;;13.57;78.39
46394;BME280;32099;53.588;10.176;2022-10-16T03:32:44;100634.66;;;13.54;78.33
46394;BME280;32099;53.588;10.176;2022-10-16T03:35:09;100639.69;;;13.50;78.56
46394;BME280;32099;53.588;10.176;2022-10-16T03:37:35;100632.53;;;13.49;78.40
46394;BME280;32099;53.588;10.176;2022-10-16T03:40:01;100633.56;;;13.48;78.45
46394;BME280;32099;53.588;10.176;2022-10-16T03:42:26;100631.44;;;13.44;78.66
46394;BME280;32099;53.588;10.176;2022-10-16T03:44:51;100649.56;;;13.45;78.54
46394;BME280;32099;53.588;10.176;2022-10-16T03:47:17;100655.06;;;13.45;78.46
46394;BME280;32099;53.588;10.176;2022-10-16T03:49:46;100651.44;;;13.44;78.60
46394;BME280;32099;53.588;10.176;2022-10-16T03:52:11;100646.19;;;13.42;78.61
46394;BME280;32099;53.588;10.176;2022-10-16T03:54:36;100650.81;;;13.42;79.01
46394;BME280;32099;53.588;10.176;2022-10-16T03:57:02;100652.94;;;13.40;78.90
46394;BME280;32099;53.588;10.176;2022-10-16T03:59:27;100644.88;;;13.38;78.85
46394;BME280;32099;53.588;10.176;2022-10-16T04:01:52;100643.00;;;13.39;78.57
46394;BME280;32099;53.588;10.176;2022-10-16T04:04:18;100649.75;;;13.43;78.81
46394;BME280;32099;53.588;10.176;2022-10-16T04:06:43;100646.19;;;13.42;78.73
46394;BME280;32099;53.588;10.176;2022-10-16T04:09:08;100652.50;;;13.43;78.52
46394;BME280;32099;53.588;10.176;2022-10-16T04:11:33;100658.19;;;13.41;78.51
46394;BME280;32099;53.588;10.176;2022-10-16T04:13:59;100672.94;;;13.40;78.64
46394;BME280;32099;53.588;10.176;2022-10-16T04:16:24;100681.50;;;13.37;78.49
46394;BME280;32099;53.588;10.176;2022-10-16T04:18:49;100678.78;;;13.37;78.64
46394;BME280;32099;53.588;10.176;2022-10-16T04:21:15;100671.00;;;13.34;78.57
46394;BME280;32099;53.588;10.176;2022-10-16T04:23:40;100674.13;;;13.31;78.76
46394;BME280;32099;53.588;10.176;2022-10-16T04:26:06;100689.69;;;13.31;78.97
46394;BME280;32099;53.588;10.176;2022-10-16T04:28:32;100680.88;;;13.29;78.75
46394;BME280;32099;53.588;10.176;2022-10-16T04:30:57;100687.38;;;13.27;78.67
46394;BME280;32099;53.588;10.176;2022-10-16T04:33:22;100689.25;;;13.27;78.89
46394;BME280;32099;53.588;10.176;2022-10-16T04:35:48;100690.53;;;13.24;79.05
46394;BME280;32099;53.588;10.176;2022-10-16T04:38:13;100687.34;;;13.21;78.86
46394;BME280;32099;53.588;10.176;2022-10-16T04:40:38;100696.59;;;13.20;78.85
46394;BME280;32099;53.588;10.176;2022-10-16T04:43:04;100698.31;;;13.21;78.65
46394;BME280;32099;53.588;10.176;2022-10-16T04:45:30;100700.56;;;13.17;78.82
46394;BME280;32099;53.588;10.176;2022-10-16T04:47:59;100702.25;;;13.18;78.72
46394;BME280;32099;53.588;10.176;2022-10-16T04:50:25;100703.31;;;13.17;78.86
46394;BME280;32099;53.588;10.176;2022-10-16T04:52:50;100703.53;;;13.16;78.81
46394;BME280;32099;53.588;10.176;2022-10-16T04:55:16;100709.22;;;13.14;78.80
46394;BME280;32099;53.588;10.176;2022-10-16T04:57:41;100722.25;;;13.12;79.09
46394;BME280;32099;53.588;10.176;2022-10-16T05:00:06;100712.56;;;13.09;79.18
46394;BME280;32099;53.588;10.176;2022-10-16T05:02:33;100715.28;;;13.09;78.82
46394;BME280;32099;53.588;10.176;2022-10-16T05:04:58;100717.56;;;13.06;79.06
46394;BME280;32099;53.588;10.176;2022-10-16T05:07:23;100708.91;;;13.02;79.03
46394;BME280;32099;53.588;10.176;2022-10-16T05:09:48;100721.94;;;13.00;79.27
46394;BME280;32099;53.588;10.176;2022-10-16T05:12:14;100724.22;;;12.96;79.29
46394;BME280;32099;53.588;10.176;2022-10-16T05:14:39;100723.41;;;12.96;79.47
46394;BME280;32099;53.588;10.176;2022-10-16T05:17:04;100732.28;;;12.98;79.29
46394;BME280;32099;53.588;10.176;2022-10-16T05:19:29;100729.09;;;13.01;79.18
46394;BME280;32099;53.588;10.176;2022-10-16T05:21:55;100735.63;;;13.00;79.43
46394;BME280;32099;53.588;10.176;2022-10-16T05:24:20;100739.00;;;13.02;79.37
46394;BME280;32099;53.588;10.176;2022-10-16T05:26:45;100742.16;;;12.99;79.53
46394;BME280;32099;53.588;10.176;2022-10-16T05:29:11;100743.22;;;12.98;79.42
46394;BME280;32099;53.588;10.176;2022-10-16T05:31:36;100743.41;;;12.96;79.45
46394;BME280;32099;53.588;10.176;2022-10-16T05:34:01;100737.47;;;12.93;80.12
46394;BME280;32099;53.588;10.176;2022-10-16T05:36:27;100747.97;;;12.89;79.73
46394;BME280;32099;53.588;10.176;2022-10-16T05:38:52;100741.47;;;12.90;79.47
46394;BME280;32099;53.588;10.176;2022-10-16T05:41:17;100750.72;;;12.89;79.77
46394;BME280;32099;53.588;10.176;2022-10-16T05:43:47;100753.66;;;12.88;79.73
46394;BME280;32099;53.588;10.176;2022-10-16T05:46:13;100754.50;;;12.88;79.79
46394;BME280;32099;53.588;10.176;2022-10-16T05:48:38;100743.34;;;12.90;79.40
46394;BME280;32099;53.588;10.176;2022-10-16T05:51:04;100753.66;;;12.88;79.56
46394;BME280;32099;53.588;10.176;2022-10-16T05:53:32;100744.81;;;12.86;79.65
46394;BME280;32099;53.588;10.176;2022-10-16T05:55:59;100741.19;;;12.85;79.84
46394;BME280;32099;53.588;10.176;2022-10-16T05:58:24;100748.56;;;12.85;79.78
46394;BME280;32099;53.588;10.176;2022-10-16T06:01:06;100747.72;;;12.84;79.86
46394;BME280;32099;53.588;10.176;2022-10-16T06:03:37;100754.44;;;12.81;80.03
46394;BME280;32099;53.588;10.176;2022-10-16T06:06:09;100758.44;;;12.79;79.92
46394;BME280;32099;53.588;10.176;2022-10-16T06:08:35;100753.78;;;12.79;79.97
46394;BME280;32099;53.588;10.176;2022-10-16T06:11:02;100762.44;;;12.83;80.12
46394;BME280;32099;53.588;10.176;2022-10-16T06:13:28;100766.69;;;12.86;79.73
46394;BME280;32099;53.588;10.176;2022-10-16T06:15:56;100762.72;;;12.88;80.02
46394;BME280;32099;53.588;10.176;2022-10-16T06:18:22;100764.63;;;12.88;79.68
46394;BME280;32099;53.588;10.176;2022-10-16T06:20:48;100774.09;;;12.92;79.80
46394;BME280;32099;53.588;10.176;2022-10-16T06:23:13;100772.84;;;12.94;80.07
46394;BME280;32099;53.588;10.176;2022-10-16T06:25:38;100769.28;;;12.94;79.57
46394;BME280;32099;53.588;10.176;2022-10-16T06:28:04;100767.19;;;12.96;79.29
46394;BME280;32099;53.588;10.176;2022-10-16T06:30:29;100765.28;;;12.96;79.42
46394;BME280;32099;53.588;10.176;2022-10-16T06:32:54;100771.34;;;12.92;79.57
46394;BME280;32099;53.588;10.176;2022-10-16T06:35:19;100780.44;;;12.92;79.57
46394;BME280;32099;53.588;10.176;2022-10-16T06:37:45;100773.72;;;12.95;79.65
46394;BME280;32099;53.588;10.176;2022-10-16T06:40:10;100782.56;;;12.97;79.58
46394;BME280;32099;53.588;10.176;2022-10-16T06:42:36;100778.78;;;12.98;79.77
46394;BME280;32099;53.588;10.176;2022-10-16T06:45:01;100787.63;;;13.00;79.43
46394;BME280;32099;53.588;10.176;2022-10-16T06:47:26;100789.31;;;13.01;79.39
46394;BME280;32099;53.588;10.176;2022-10-16T06:49:52;100784.06;;;13.00;79.68
46394;BME280;32099;53.588;10.176;2022-10-16T06:52:17;100781.31;;;13.00;79.94
46394;BME280;32099;53.588;10.176;2022-10-16T06:54:42;100786.59;;;13.01;79.91
46394;BME280;32099;53.588;10.176;2022-10-16T06:57:08;100798.00;;;13.05;79.88
46394;BME280;32099;53.588;10.176;2022-10-16T06:59:33;100796.09;;;13.05;80.08
46394;BME280;32099;53.588;10.176;2022-10-16T07:01:58;100805.38;;;13.04;80.24
46394;BME280;32099;53.588;10.176;2022-10-16T07:04:23;100807.72;;;13.07;81.23
46394;BME280;32099;53.588;10.176;2022-10-16T07:06:49;100815.31;;;13.12;80.41
46394;BME280;32099;53.588;10.176;2022-10-16T07:09:14;100813.47;;;13.19;80.52
46394;BME280;32099;53.588;10.176;2022-10-16T07:11:40;100824.69;;;13.24;80.72
46394;BME280;32099;53.588;10.176;2022-10-16T07:14:10;100822.66;;;13.33;80.44
46394;BME280;32099;53.588;10.176;2022-10-16T07:16:42;100818.94;;;13.41;80.17
46394;BME280;32099;53.588;10.176;2022-10-16T07:19:07;100831.44;;;13.50;80.15
46394;BME280;32099;53.588;10.176;2022-10-16T07:21:33;100838.88;;;13.63;80.09
46394;BME280;32099;53.588;10.176;2022-10-16T07:24:03;100834.53;;;13.76;80.00
46394;BME280;32099;53.588;10.176;2022-10-16T07:26:32;100837.53;;;13.87;79.50
46394;BME280;32099;53.588;10.176;2022-10-16T07:28:58;100843.97;;;14.01;79.78
46394;BME280;32099;53.588;10.176;2022-10-16T07:31:24;100840.22;;;14.16;79.47
46394;BME280;32099;53.588;10.176;2022-10-16T07:33:50;100842.81;;;14.31;78.91
46394;BME280;32099;53.588;10.176;2022-10-16T07:36:16;100846.66;;;14.43;78.31
46394;BME280;32099;53.588;10.176;2022-10-16T07:38:43;100850.25;;;14.50;78.15
46394;BME280;32099;53.588;10.176;2022-10-16T07:41:09;100853.66;;;14.59;78.08
46394;BME280;32099;53.588;10.176;2022-10-16T07:43:36;100862.09;;;14.64;78.05
46394;BME280;32099;53.588;10.176;2022-10-16T07:46:02;100860.47;;;14.70;78.23
46394;BME280;32099;53.588;10.176;2022-10-16T07:48:28;100862.78;;;14.73;78.27
46394;BME280;32099;53.588;10.176;2022-10-16T07:50:59;100867.66;;;14.78;78.20
46394;BME280;32099;53.588;10.176;2022-10-16T07:53:25;100866.63;;;14.92;78.01
46394;BME280;32099;53.588;10.176;2022-10-16T07:55:51;100872.34;;;15.11;77.76
46394;BME280;32099;53.588;10.176;2022-10-16T07:58:16;100877.84;;;15.31;77.49
46394;BME280;32099;53.588;10.176;2022-10-16T08:00:41;100875.09;;;15.51;76.63
46394;BME280;32099;53.588;10.176;2022-10-16T08:03:07;100880.13;;;15.74;75.82
46394;BME280;32099;53.588;10.176;2022-10-16T08:05:33;100876.31;;;16.02;75.81
46394;BME280;32099;53.588;10.176;2022-10-16T08:07:59;100872.84;;;16.27;74.73
46394;BME280;32099;53.588;10.176;2022-10-16T08:10:25;100875.38;;;16.22;74.27
46394;BME280;32099;53.588;10.176;2022-10-16T08:12:51;100877.53;;;16.07;74.53
46394;BME280;32099;53.588;10.176;2022-10-16T08:15:17;100878.66;;;15.92;75.25
46394;BME280;32099;53.588;10.176;2022-10-16T08:17:43;100883.50;;;15.83;75.63
46394;BME280;32099;53.588;10.176;2022-10-16T08:20:09;100887.97;;;15.78;75.93
46394;BME280;32099;53.588;10.176;2022-10-16T08:22:35;100897.03;;;15.78;75.92
46394;BME280;32099;53.588;10.176;2022-10-16T08:25:00;100896.22;;;15.71;76.11
46394;BME280;32099;53.588;10.176;2022-10-16T08:27:30;100896.44;;;15.69;76.44
46394;BME280;32099;53.588;10.176;2022-10-16T08:29:56;100897.69;;;15.67;76.82
46394;BME280;32099;53.588;10.176;2022-10-16T08:32:21;100895.56;;;15.76;76.53
46394;BME280;32099;53.588;10.176;2022-10-16T08:34:47;100893.88;;;15.81;76.38
46394;BME280;32099;53.588;10.176;2022-10-16T08:37:12;100887.94;;;16.04;76.09
46394;BME280;32099;53.588;10.176;2022-10-16T08:39:38;100895.66;;;16.34;74.71
46394;BME280;32099;53.588;10.176;2022-10-16T08:42:11;100890.19;;;16.66;73.63
46394;BME280;32099;53.588;10.176;2022-10-16T08:47:29;100884.19;;;17.40;71.82
46394;BME280;32099;53.588;10.176;2022-10-16T08:50:09;100897.78;;;17.42;70.96
46394;BME280;32099;53.588;10.176;2022-10-16T08:52:41;100889.31;;;17.37;70.83
46394;BME280;32099;53.588;10.176;2022-10-16T08:55:17;100897.88;;;17.54;71.39
46394;BME280;32099;53.588;10.176;2022-10-16T08:57:51;100897.00;;;17.79;70.20
46394;BME280;32099;53.588;10.176;2022-10-16T09:00:17;100907.63;;;18.00;69.56
46394;BME280;32099;53.588;10.176;2022-10-16T09:02:53;100904.78;;;18.26;69.90
46394;BME280;32099;53.588;10.176;2022-10-16T09:08:20;100930.22;;;18.46;67.36
46394;BME280;32099;53.588;10.176;2022-10-16T09:14:07;100921.09;;;18.64;65.72
46394;BME280;32099;53.588;10.176;2022-10-16T09:17:04;100939.88;;;18.74;66.92
46394;BME280;32099;53.588;10.176;2022-10-16T09:22:40;100931.38;;;19.06;67.29
46394;BME280;32099;53.588;10.176;2022-10-16T09:25:13;100935.59;;;19.09;63.45
46394;BME280;32099;53.588;10.176;2022-10-16T09:27:42;100944.56;;;18.74;64.94
46394;BME280;32099;53.588;10.176;2022-10-16T09:30:14;100948.97;;;18.44;66.30
46394;BME280;32099;53.588;10.176;2022-10-16T09:32:43;100943.22;;;18.27;67.86
46394;BME280;32099;53.588;10.176;2022-10-16T09:35:14;100939.59;;;18.27;67.34
46394;BME280;32099;53.588;10.176;2022-10-16T09:37:42;100945.34;;;18.44;67.48
46394;BME280;32099;53.588;10.176;2022-10-16T09:40:23;100947.63;;;18.65;64.48
46394;BME280;32099;53.588;10.176;2022-10-16T09:42:52;100952.16;;;18.78;64.92
46394;BME280;32099;53.588;10.176;2022-10-16T09:45:26;100951.44;;;18.83;65.02
46394;BME280;32099;53.588;10.176;2022-10-16T09:47:52;100959.88;;;18.88;65.29
46394;BME280;32099;53.588;10.176;2022-10-16T09:50:25;100953.56;;;19.00;65.77
46394;BME280;32099;53.588;10.176;2022-10-16T09:53:08;100941.16;;;19.21;65.53
46394;BME280;32099;53.588;10.176;2022-10-16T09:55:35;100945.91;;;19.44;65.39
46394;BME280;32099;53.588;10.176;2022-10-16T09:58:00;100958.66;;;19.69;64.07
46394;BME280;32099;53.588;10.176;2022-10-16T10:00:25;100957.47;;;19.77;62.98
46394;BME280;32099;53.588;10.176;2022-10-16T10:02:51;100959.06;;;19.84;63.29
46394;BME280;32099;53.588;10.176;2022-10-16T10:07:56;100972.91;;;19.96;60.45
46394;BME280;32099;53.588;10.176;2022-10-16T10:10:28;100980.38;;;19.96;62.67
46394;BME280;32099;53.588;10.176;2022-10-16T10:12:55;100984.38;;;20.00;62.30
46394;BME280;32099;53.588;10.176;2022-10-16T10:15:21;100975.56;;;20.03;62.31
46394;BME280;32099;53.588;10.176;2022-10-16T10:17:55;100983.53;;;20.11;62.38
46394;BME280;32099;53.588;10.176;2022-10-16T10:20:23;100988.44;;;20.09;63.04
46394;BME280;32099;53.588;10.176;2022-10-16T10:22:53;100992.16;;;20.03;60.16
46394;BME280;32099;53.588;10.176;2022-10-16T10:33:31;100994.47;;;19.94;60.81
46394;BME280;32099;53.588;10.176;2022-10-16T10:36:12;100999.41;;;19.92;58.83
46394;BME280;32099;53.588;10.176;2022-10-16T10:39:02;101008.03;;;19.84;59.09
46394;BME280;32099;53.588;10.176;2022-10-16T10:47:01;101005.94;;;19.67;61.01
46394;BME280;32099;53.588;10.176;2022-10-16T11:01:10;101018.28;;;19.41;59.18
46394;BME280;32099;53.588;10.176;2022-10-16T11:03:47;101011.66;;;19.42;61.32
46394;BME280;32099;53.588;10.176;2022-10-16T11:06:33;101018.63;;;19.45;61.53
46394;BME280;32099;53.588;10.176;2022-10-16T11:09:24;101020.78;;;19.42;60.13
46394;BME280;32099;53.588;10.176;2022-10-16T11:14:57;101019.16;;;19.23;59.25
46394;BME280;32099;53.588;10.176;2022-10-16T11:17:30;101015.94;;;19.26;61.63
46394;BME280;32099;53.588;10.176;2022-10-16T11:22:34;101012.78;;;19.22;61.67
46394;BME280;32099;53.588;10.176;2022-10-16T11:25:06;101017.22;;;19.23;59.46
46394;BME280;32099;53.588;10.176;2022-10-16T11:30:53;101024.34;;;19.31;58.93
46394;BME280;32099;53.588;10.176;2022-10-16T11:36:06;101036.66;;;19.17;58.76
46394;BME280;32099;53.588;10.176;2022-10-16T11:38:37;101046.53;;;19.13;57.81
46394;BME280;32099;53.588;10.176;2022-10-16T11:41:22;101042.53;;;19.08;58.68
46394;BME280;32099;53.588;10.176;2022-10-16T11:44:31;101044.03;;;19.23;58.33
46394;BME280;32099;53.588;10.176;2022-10-16T11:47:23;101050.69;;;19.34;55.45
46394;BME280;32099;53.588;10.176;2022-10-16T11:50:20;101047.88;;;19.52;58.84
46394;BME280;32099;53.588;10.176;2022-10-16T11:55:41;101060.03;;;19.63;57.29
46394;BME280;32099;53.588;10.176;2022-10-16T11:58:12;101061.72;;;19.52;56.28
46394;BME280;32099;53.588;10.176;2022-10-16T12:00:47;101067.59;;;19.44;56.29
46394;BME280;32099;53.588;10.176;2022-10-16T12:03:29;101073.00;;;19.51;56.86
46394;BME280;32099;53.588;10.176;2022-10-16T12:06:05;101079.84;;;19.48;59.81
46394;BME280;32099;53.588;10.176;2022-10-16T12:08:38;101077.53;;;19.45;59.92
46394;BME280;32099;53.588;10.176;2022-10-16T12:11:19;101073.78;;;19.39;57.20
46394;BME280;32099;53.588;10.176;2022-10-16T12:13:51;101080.81;;;19.23;58.74
46394;BME280;32099;53.588;10.176;2022-10-16T12:18:45;101078.66;;;19.25;58.69
46394;BME280;32099;53.588;10.176;2022-10-16T12:21:12;101081.28;;;19.51;58.01
46394;BME280;32099;53.588;10.176;2022-10-16T12:23:47;101086.88;;;19.93;56.78
46394;BME280;32099;53.588;10.176;2022-10-16T12:26:13;101085.38;;;21.09;55.28
46394;BME280;32099;53.588;10.176;2022-10-16T12:28:48;101098.56;;;23.63;52.00
46394;BME280;32099;53.588;10.176;2022-10-16T12:31:16;101100.91;;;24.79;41.59
46394;BME280;32099;53.588;10.176;2022-10-16T12:33:56;101115.81;;;27.49;39.18
46394;BME280;32099;53.588;10.176;2022-10-16T12:36:28;101125.44;;;28.46;36.14
46394;BME280;32099;53.588;10.176;2022-10-16T12:38:56;101124.06;;;27.69;34.89
46394;BME280;32099;53.588;10.176;2022-10-16T12:41:28;101111.53;;;25.51;41.20
46394;BME280;32099;53.588;10.176;2022-10-16T12:43:56;101115.59;;;23.72;44.52
46394;BME280;32099;53.588;10.176;2022-10-16T12:46:24;101114.16;;;22.58;47.61
46394;BME280;32099;53.588;10.176;2022-10-16T12:49:06;101116.84;;;21.85;48.32
46394;BME280;32099;53.588;10.176;2022-10-16T12:51:38;101128.72;;;21.39;47.60
46394;BME280;32099;53.588;10.176;2022-10-16T12:54:14;101124.69;;;21.18;51.29
46394;BME280;32099;53.588;10.176;2022-10-16T12:56:55;101131.22;;;21.00;48.12
46394;BME280;32099;53.588;10.176;2022-10-16T12:59:50;101137.03;;;20.87;49.32
46394;BME280;32099;53.588;10.176;2022-10-16T13:22:21;101154.34;;;20.46;51.18
46394;BME280;32099;53.588;10.176;2022-10-16T13:24:58;101153.28;;;20.47;52.94
46394;BME280;32099;53.588;10.176;2022-10-16T13:27:39;101174.72;;;20.52;50.36
46394;BME280;32099;53.588;10.176;2022-10-16T13:30:19;101168.66;;;20.55;51.38
46394;BME280;32099;53.588;10.176;2022-10-16T13:32:52;101181.69;;;20.55;52.26
46394;BME280;32099;53.588;10.176;2022-10-16T13:35:34;101182.16;;;20.52;52.67
46394;BME280;32099;53.588;10.176;2022-10-16T13:38:19;101196.88;;;20.52;51.23
46394;BME280;32099;53.588;10.176;2022-10-16T13:40:48;101189.63;;;20.51;51.91
46394;BME280;32099;53.588;10.176;2022-10-16T13:43:13;101191.81;;;20.49;53.39
46394;BME280;32099;53.588;10.176;2022-10-16T13:45:39;101197.34;;;20.49;52.76
46394;BME280;32099;53.588;10.176;2022-10-16T13:48:05;101200.47;;;20.53;53.90
46394;BME280;32099;53.588;10.176;2022-10-16T13:50:34;101206.88;;;20.53;51.62
46394;BME280;32099;53.588;10.176;2022-10-16T13:53:06;101203.34;;;20.46;50.65
46394;BME280;32099;53.588;10.176;2022-10-16T13:55:32;101212.25;;;20.36;54.11
46394;BME280;32099;53.588;10.176;2022-10-16T13:58:04;101214.16;;;20.24;51.73
46394;BME280;32099;53.588;10.176;2022-10-16T14:00:32;101210.25;;;20.13;51.67
46394;BME280;32099;53.588;10.176;2022-10-16T14:03:01;101222.88;;;20.09;53.62
46394;BME280;32099;53.588;10.176;2022-10-16T14:05:29;101224.44;;;20.04;51.84
46394;BME280;32099;53.588;10.176;2022-10-16T14:07:55;101222.88;;;20.09;52.93
46394;BME280;32099;53.588;10.176;2022-10-16T14:10:26;101224.47;;;20.16;54.62
46394;BME280;32099;53.588;10.176;2022-10-16T14:13:04;101230.47;;;20.13;49.34
46394;BME280;32099;53.588;10.176;2022-10-16T14:15:33;101230.81;;;20.05;51.55
46394;BME280;32099;53.588;10.176;2022-10-16T14:18:00;101228.63;;;19.95;51.43